sensor_id;sensor_type;location;lat;lon;timestamp;temperature;humidity
25302;DHT22;13243;50.888;4.724;2023-02-11T00:02:13;6.70;99.90
25302;DHT22;13243;50.888;4.724;2023-02-11T00:07:15;6.60;99.90
25302;DHT22;13243;50.888;4.724;2023-02-11T00:12:17;6.50;99.90
25302;DHT22;13243;50.888;4.724;2023-02-11T00:17:20;6.50;99.90
25302;DHT22;13243;50.888;4.724;2023-02-11T00:22:22;6.50;99.90
25302;DHT22;13243;50.888;4.724;2023-02-11T00:27:24;6.40;99.90
25302;DHT22;13243;50.888;4.724;2023-02-11T00:32:26;6.40;99.90
25302;DHT22;13243;50.888;4.724;2023-02-11T00:37:28;6.40;99.90
25302;DHT22;13243;50.888;4.724;2023-02-11T00:42:30;6.30;99.90
25302;DHT22;13243;50.888;4.724;2023-02-11T00:47:31;6.30;99.90
25302;DHT22;13243;50.888;4.724;2023-02-11T00:52:33;6.20;99.90
25302;DHT22;13243;50.888;4.724;2023-02-11T00:57:35;6.20;99.90
25302;DHT22;13243;50.888;4.724;2023-02-11T01:02:37;6.10;99.90
25302;DHT22;13243;50.888;4.724;2023-02-11T01:07:39;6.20;99.90
25302;DHT22;13243;50.888;4.724;2023-02-11T01:12:41;6.10;99.90
25302;DHT22;13243;50.888;4.724;2023-02-11T01:17:43;6.10;99.90
25302;DHT22;13243;50.888;4.724;2023-02-11T01:22:45;6.00;99.90
25302;DHT22;13243;50.888;4.724;2023-02-11T01:27:46;6.20;99.90
25302;DHT22;13243;50.888;4.724;2023-02-11T01:32:48;6.10;99.90
25302;DHT22;13243;50.888;4.724;2023-02-11T01:37:50;6.10;99.90
25302;DHT22;13243;50.888;4.724;2023-02-11T01:42:52;6.10;99.90
25302;DHT22;13243;50.888;4.724;2023-02-11T01:47:54;6.10;99.90
25302;DHT22;13243;50.888;4.724;2023-02-11T01:52:56;6.10;99.90
25302;DHT22;13243;50.888;4.724;2023-02-11T01:58:18;6.00;99.90
25302;DHT22;13243;50.888;4.724;2023-02-11T02:03:21;6.00;99.90
25302;DHT22;13243;50.888;4.724;2023-02-11T02:08:48;6.00;99.90
25302;DHT22;13243;50.888;4.724;2023-02-11T02:13:51;6.10;99.90
25302;DHT22;13243;50.888;4.724;2023-02-11T02:40:23;6.20;99.90
25302;DHT22;13243;50.888;4.724;2023-02-11T02:45:27;6.20;99.90
25302;DHT22;13243;50.888;4.724;2023-02-11T02:50:34;6.20;99.90
25302;DHT22;13243;50.888;4.724;2023-02-11T02:55:59;6.30;99.90
25302;DHT22;13243;50.888;4.724;2023-02-11T03:06:48;6.30;99.90
25302;DHT22;13243;50.888;4.724;2023-02-11T03:11:53;6.30;99.90
25302;DHT22;13243;50.888;4.724;2023-02-11T03:16:57;6.30;99.90
25302;DHT22;13243;50.888;4.724;2023-02-11T03:22:06;6.30;99.90
25302;DHT22;13243;50.888;4.724;2023-02-11T03:27:14;6.30;99.90
25302;DHT22;13243;50.888;4.724;2023-02-11T03:32:32;6.40;99.90
25302;DHT22;13243;50.888;4.724;2023-02-11T03:38:14;6.40;99.90
25302;DHT22;13243;50.888;4.724;2023-02-11T03:43:14;6.40;99.90
25302;DHT22;13243;50.888;4.724;2023-02-11T03:48:27;6.40;99.90
25302;DHT22;13243;50.888;4.724;2023-02-11T03:53:30;6.40;99.90
25302;DHT22;13243;50.888;4.724;2023-02-11T03:58:32;6.40;99.90
25302;DHT22;13243;50.888;4.724;2023-02-11T04:03:34;6.40;99.90
25302;DHT22;13243;50.888;4.724;2023-02-11T04:08:36;6.40;99.90
25302;DHT22;13243;50.888;4.724;2023-02-11T04:13:38;6.40;99.90
25302;DHT22;13243;50.888;4.724;2023-02-11T04:18:39;6.50;99.90
25302;DHT22;13243;50.888;4.724;2023-02-11T04:23:41;6.40;99.90
25302;DHT22;13243;50.888;4.724;2023-02-11T04:28:43;6.40;99.90
25302;DHT22;13243;50.888;4.724;2023-02-11T04:33:45;6.40;99.90
25302;DHT22;13243;50.888;4.724;2023-02-11T04:38:47;6.40;99.90
25302;DHT22;13243;50.888;4.724;2023-02-11T04:43:49;6.30;99.90
25302;DHT22;13243;50.888;4.724;2023-02-11T04:48:51;6.40;99.90
25302;DHT22;13243;50.888;4.724;2023-02-11T04:53:53;6.30;99.90
25302;DHT22;13243;50.888;4.724;2023-02-11T04:58:55;6.40;99.90
25302;DHT22;13243;50.888;4.724;2023-02-11T05:03:57;6.40;99.90
25302;DHT22;13243;50.888;4.724;2023-02-11T05:08:59;6.40;99.90
25302;DHT22;13243;50.888;4.724;2023-02-11T05:14:01;6.40;99.90
25302;DHT22;13243;50.888;4.724;2023-02-11T05:19:03;6.40;99.90
25302;DHT22;13243;50.888;4.724;2023-02-11T05:24:05;6.40;99.90
25302;DHT22;13243;50.888;4.724;2023-02-11T05:29:07;6.40;99.90
25302;DHT22;13243;50.888;4.724;2023-02-11T05:34:09;6.40;99.90
25302;DHT22;13243;50.888;4.724;2023-02-11T05:39:11;6.40;99.90
25302;DHT22;13243;50.888;4.724;2023-02-11T05:44:15;6.40;99.90
25302;DHT22;13243;50.888;4.724;2023-02-11T05:49:17;6.40;99.90
25302;DHT22;13243;50.888;4.724;2023-02-11T05:54:19;6.40;99.90
25302;DHT22;13243;50.888;4.724;2023-02-11T05:59:21;6.40;99.90
25302;DHT22;13243;50.888;4.724;2023-02-11T06:04:23;6.40;99.90
25302;DHT22;13243;50.888;4.724;2023-02-11T06:09:25;6.30;99.90
25302;DHT22;13243;50.888;4.724;2023-02-11T06:14:27;6.40;99.90
25302;DHT22;13243;50.888;4.724;2023-02-11T06:19:29;6.50;99.90
25302;DHT22;13243;50.888;4.724;2023-02-11T06:24:31;6.50;99.90
25302;DHT22;13243;50.888;4.724;2023-02-11T06:29:53;6.40;99.90
25302;DHT22;13243;50.888;4.724;2023-02-11T06:34:55;6.50;99.90
25302;DHT22;13243;50.888;4.724;2023-02-11T06:39:57;6.50;99.90
25302;DHT22;13243;50.888;4.724;2023-02-11T06:44:58;6.70;99.90
25302;DHT22;13243;50.888;4.724;2023-02-11T06:50:00;6.50;99.90
25302;DHT22;13243;50.888;4.724;2023-02-11T06:55:02;6.50;99.90
25302;DHT22;13243;50.888;4.724;2023-02-11T07:00:05;6.50;99.90
25302;DHT22;13243;50.888;4.724;2023-02-11T07:05:07;6.60;99.90
25302;DHT22;13243;50.888;4.724;2023-02-11T07:10:09;6.60;99.90
25302;DHT22;13243;50.888;4.724;2023-02-11T07:15:11;6.60;99.90
25302;DHT22;13243;50.888;4.724;2023-02-11T07:20:12;6.60;99.90
25302;DHT22;13243;50.888;4.724;2023-02-11T07:25:15;6.60;99.90
25302;DHT22;13243;50.888;4.724;2023-02-11T07:30:17;6.70;99.90
25302;DHT22;13243;50.888;4.724;2023-02-11T07:35:19;6.70;99.90
25302;DHT22;13243;50.888;4.724;2023-02-11T07:40:21;6.70;99.90
25302;DHT22;13243;50.888;4.724;2023-02-11T07:45:23;6.70;99.90
25302;DHT22;13243;50.888;4.724;2023-02-11T07:50:25;6.70;99.90
25302;DHT22;13243;50.888;4.724;2023-02-11T07:55:28;6.70;99.90
25302;DHT22;13243;50.888;4.724;2023-02-11T08:00:29;6.80;99.90
25302;DHT22;13243;50.888;4.724;2023-02-11T08:05:31;6.70;99.90
25302;DHT22;13243;50.888;4.724;2023-02-11T08:10:33;6.70;99.90
25302;DHT22;13243;50.888;4.724;2023-02-11T08:15:35;6.80;99.90
25302;DHT22;13243;50.888;4.724;2023-02-11T08:20:37;6.80;99.90
25302;DHT22;13243;50.888;4.724;2023-02-11T08:25:39;6.80;99.90
25302;DHT22;13243;50.888;4.724;2023-02-11T08:30:41;6.80;99.90
25302;DHT22;13243;50.888;4.724;2023-02-11T08:35:43;6.80;99.90
25302;DHT22;13243;50.888;4.724;2023-02-11T08:40:45;6.90;99.90
25302;DHT22;13243;50.888;4.724;2023-02-11T08:45:47;6.90;99.90
25302;DHT22;13243;50.888;4.724;2023-02-11T08:50:49;6.90;99.90
25302;DHT22;13243;50.888;4.724;2023-02-11T08:55:53;7.00;99.90
25302;DHT22;13243;50.888;4.724;2023-02-11T09:00:55;7.00;99.90
25302;DHT22;13243;50.888;4.724;2023-02-11T09:05:57;6.90;99.90
25302;DHT22;13243;50.888;4.724;2023-02-11T09:10:59;7.00;99.90
25302;DHT22;13243;50.888;4.724;2023-02-11T09:16:02;7.00;99.90
25302;DHT22;13243;50.888;4.724;2023-02-11T09:21:06;7.00;99.90
25302;DHT22;13243;50.888;4.724;2023-02-11T09:26:12;7.00;99.90
25302;DHT22;13243;50.888;4.724;2023-02-11T09:31:17;7.10;99.90
25302;DHT22;13243;50.888;4.724;2023-02-11T09:36:29;7.10;99.90
25302;DHT22;13243;50.888;4.724;2023-02-11T09:47:03;7.20;99.90
25302;DHT22;13243;50.888;4.724;2023-02-11T09:52:39;7.20;99.90
25302;DHT22;13243;50.888;4.724;2023-02-11T09:57:42;7.20;99.90
25302;DHT22;13243;50.888;4.724;2023-02-11T10:03:08;7.30;99.90
25302;DHT22;13243;50.888;4.724;2023-02-11T10:08:39;7.30;99.90
25302;DHT22;13243;50.888;4.724;2023-02-11T10:24:27;7.40;99.90
25302;DHT22;13243;50.888;4.724;2023-02-11T10:29:44;7.50;99.90
25302;DHT22;13243;50.888;4.724;2023-02-11T10:34:48;7.50;99.90
25302;DHT22;13243;50.888;4.724;2023-02-11T10:39:50;7.60;99.90
25302;DHT22;13243;50.888;4.724;2023-02-11T10:45:02;7.60;99.90
25302;DHT22;13243;50.888;4.724;2023-02-11T10:50:26;7.60;99.90
25302;DHT22;13243;50.888;4.724;2023-02-11T10:55:28;7.60;99.90
25302;DHT22;13243;50.888;4.724;2023-02-11T11:00:35;7.70;99.90
25302;DHT22;13243;50.888;4.724;2023-02-11T11:11:22;7.70;99.90
25302;DHT22;13243;50.888;4.724;2023-02-11T11:21:43;7.80;99.90
25302;DHT22;13243;50.888;4.724;2023-02-11T11:26:58;7.80;99.90
25302;DHT22;13243;50.888;4.724;2023-02-11T11:32:26;7.80;99.90
25302;DHT22;13243;50.888;4.724;2023-02-11T11:37:31;7.90;99.90
25302;DHT22;13243;50.888;4.724;2023-02-11T11:42:36;7.90;99.90
25302;DHT22;13243;50.888;4.724;2023-02-11T11:47:50;7.90;99.90
25302;DHT22;13243;50.888;4.724;2023-02-11T11:58:32;7.90;99.90
25302;DHT22;13243;50.888;4.724;2023-02-11T12:03:42;8.00;99.90
25302;DHT22;13243;50.888;4.724;2023-02-11T12:09:12;8.00;99.90
25302;DHT22;13243;50.888;4.724;2023-02-11T12:25:26;8.10;99.90
25302;DHT22;13243;50.888;4.724;2023-02-11T12:57:58;8.20;99.90
25302;DHT22;13243;50.888;4.724;2023-02-11T13:03:12;8.30;99.90
25302;DHT22;13243;50.888;4.724;2023-02-11T13:08:37;8.30;99.90
25302;DHT22;13243;50.888;4.724;2023-02-11T13:35:32;8.30;99.90
25302;DHT22;13243;50.888;4.724;2023-02-11T13:40:38;8.30;99.90
25302;DHT22;13243;50.888;4.724;2023-02-11T13:45:45;8.40;99.90
25302;DHT22;13243;50.888;4.724;2023-02-11T13:51:09;8.40;99.90
25302;DHT22;13243;50.888;4.724;2023-02-11T14:23:45;8.50;99.90
25302;DHT22;13243;50.888;4.724;2023-02-11T14:28:57;8.50;99.90
25302;DHT22;13243;50.888;4.724;2023-02-11T14:34:38;8.50;99.90
25302;DHT22;13243;50.888;4.724;2023-02-11T14:45:10;8.50;99.90
25302;DHT22;13243;50.888;4.724;2023-02-11T14:51:12;8.50;99.90
25302;DHT22;13243;50.888;4.724;2023-02-11T14:55:50;8.50;99.90
25302;DHT22;13243;50.888;4.724;2023-02-11T15:06:13;8.50;99.90
25302;DHT22;13243;50.888;4.724;2023-02-11T15:11:19;8.50;99.90
25302;DHT22;13243;50.888;4.724;2023-02-11T15:16:23;8.50;99.90
25302;DHT22;13243;50.888;4.724;2023-02-11T15:21:33;8.50;99.90
25302;DHT22;13243;50.888;4.724;2023-02-11T15:26:36;8.60;99.90
25302;DHT22;13243;50.888;4.724;2023-02-11T15:31:38;8.50;99.90
25302;DHT22;13243;50.888;4.724;2023-02-11T15:36:41;8.50;99.90
25302;DHT22;13243;50.888;4.724;2023-02-11T15:41:43;8.50;99.90
25302;DHT22;13243;50.888;4.724;2023-02-11T15:46:45;8.50;99.90
25302;DHT22;13243;50.888;4.724;2023-02-11T15:51:48;8.50;99.90
25302;DHT22;13243;50.888;4.724;2023-02-11T15:56:52;8.60;99.90
25302;DHT22;13243;50.888;4.724;2023-02-11T16:02:03;8.50;99.90
25302;DHT22;13243;50.888;4.724;2023-02-11T16:07:17;8.50;99.90
25302;DHT22;13243;50.888;4.724;2023-02-11T16:12:28;8.50;99.90
25302;DHT22;13243;50.888;4.724;2023-02-11T16:17:30;8.50;99.90
25302;DHT22;13243;50.888;4.724;2023-02-11T16:22:32;8.40;99.90
25302;DHT22;13243;50.888;4.724;2023-02-11T16:27:40;8.50;99.90
25302;DHT22;13243;50.888;4.724;2023-02-11T16:32:42;8.50;99.90
25302;DHT22;13243;50.888;4.724;2023-02-11T16:37:44;8.40;99.90
25302;DHT22;13243;50.888;4.724;2023-02-11T16:42:45;8.50;99.90
25302;DHT22;13243;50.888;4.724;2023-02-11T16:47:47;8.40;99.90
25302;DHT22;13243;50.888;4.724;2023-02-11T16:52:50;8.50;99.90
25302;DHT22;13243;50.888;4.724;2023-02-11T16:57:53;8.50;99.90
25302;DHT22;13243;50.888;4.724;2023-02-11T17:02:55;8.40;99.90
25302;DHT22;13243;50.888;4.724;2023-02-11T17:07:57;8.50;99.90
25302;DHT22;13243;50.888;4.724;2023-02-11T17:12:58;8.50;99.90
25302;DHT22;13243;50.888;4.724;2023-02-11T17:18:02;8.40;99.90
25302;DHT22;13243;50.888;4.724;2023-02-11T17:23:04;8.40;99.90
25302;DHT22;13243;50.888;4.724;2023-02-11T17:28:07;8.40;99.90
25302;DHT22;13243;50.888;4.724;2023-02-11T17:33:10;8.40;99.90
25302;DHT22;13243;50.888;4.724;2023-02-11T17:38:11;8.40;99.90
25302;DHT22;13243;50.888;4.724;2023-02-11T17:43:13;8.40;99.90
25302;DHT22;13243;50.888;4.724;2023-02-11T17:48:16;8.40;99.90
25302;DHT22;13243;50.888;4.724;2023-02-11T17:53:18;8.40;99.90
25302;DHT22;13243;50.888;4.724;2023-02-11T17:58:20;8.40;99.90
25302;DHT22;13243;50.888;4.724;2023-02-11T18:03:22;8.40;99.90
25302;DHT22;13243;50.888;4.724;2023-02-11T18:08:24;8.30;99.90
25302;DHT22;13243;50.888;4.724;2023-02-11T18:13:27;8.40;99.90
25302;DHT22;13243;50.888;4.724;2023-02-11T18:18:29;8.40;99.90
25302;DHT22;13243;50.888;4.724;2023-02-11T18:23:31;8.30;99.90
25302;DHT22;13243;50.888;4.724;2023-02-11T18:28:33;8.30;99.90
25302;DHT22;13243;50.888;4.724;2023-02-11T18:33:36;8.40;99.90
25302;DHT22;13243;50.888;4.724;2023-02-11T18:38:39;8.30;99.90
25302;DHT22;13243;50.888;4.724;2023-02-11T18:43:42;8.30;99.90
25302;DHT22;13243;50.888;4.724;2023-02-11T18:48:44;8.30;99.90
25302;DHT22;13243;50.888;4.724;2023-02-11T18:53:48;8.30;99.90
25302;DHT22;13243;50.888;4.724;2023-02-11T18:58:50;8.30;99.90
25302;DHT22;13243;50.888;4.724;2023-02-11T19:03:53;8.30;99.90
25302;DHT22;13243;50.888;4.724;2023-02-11T19:08:58;8.30;99.90
25302;DHT22;13243;50.888;4.724;2023-02-11T19:14:03;8.30;99.90
25302;DHT22;13243;50.888;4.724;2023-02-11T19:19:12;8.30;99.90
25302;DHT22;13243;50.888;4.724;2023-02-11T19:24:15;8.30;99.90
25302;DHT22;13243;50.888;4.724;2023-02-11T19:29:19;8.30;99.90
25302;DHT22;13243;50.888;4.724;2023-02-11T19:34:21;8.20;99.90
25302;DHT22;13243;50.888;4.724;2023-02-11T19:39:24;8.30;99.90
25302;DHT22;13243;50.888;4.724;2023-02-11T19:44:26;8.20;99.90
25302;DHT22;13243;50.888;4.724;2023-02-11T19:49:29;8.30;99.90
25302;DHT22;13243;50.888;4.724;2023-02-11T19:54:31;8.30;99.90
25302;DHT22;13243;50.888;4.724;2023-02-11T19:59:33;8.20;99.90
25302;DHT22;13243;50.888;4.724;2023-02-11T20:04:36;8.20;99.90
25302;DHT22;13243;50.888;4.724;2023-02-11T20:09:38;8.20;99.90
25302;DHT22;13243;50.888;4.724;2023-02-11T20:14:41;8.20;99.90
25302;DHT22;13243;50.888;4.724;2023-02-11T20:19:43;8.20;99.90
25302;DHT22;13243;50.888;4.724;2023-02-11T20:24:45;8.20;99.90
25302;DHT22;13243;50.888;4.724;2023-02-11T20:29:48;8.20;99.90
25302;DHT22;13243;50.888;4.724;2023-02-11T20:34:50;8.20;99.90
25302;DHT22;13243;50.888;4.724;2023-02-11T20:39:52;8.20;99.90
25302;DHT22;13243;50.888;4.724;2023-02-11T20:44:53;8.20;99.90
25302;DHT22;13243;50.888;4.724;2023-02-11T20:49:58;8.20;99.90
25302;DHT22;13243;50.888;4.724;2023-02-11T20:55:00;8.10;99.90
25302;DHT22;13243;50.888;4.724;2023-02-11T21:00:03;8.10;99.90
25302;DHT22;13243;50.888;4.724;2023-02-11T21:05:05;8.10;99.90
25302;DHT22;13243;50.888;4.724;2023-02-11T21:10:07;8.10;99.90
25302;DHT22;13243;50.888;4.724;2023-02-11T21:15:10;8.10;99.90
25302;DHT22;13243;50.888;4.724;2023-02-11T21:20:13;8.00;99.90
25302;DHT22;13243;50.888;4.724;2023-02-11T21:25:16;8.00;99.90
25302;DHT22;13243;50.888;4.724;2023-02-11T21:30:18;8.10;99.90
25302;DHT22;13243;50.888;4.724;2023-02-11T21:35:22;8.10;99.90
25302;DHT22;13243;50.888;4.724;2023-02-11T21:40:24;8.00;99.90
25302;DHT22;13243;50.888;4.724;2023-02-11T21:45:30;7.90;99.90
25302;DHT22;13243;50.888;4.724;2023-02-11T21:50:33;7.90;99.90
25302;DHT22;13243;50.888;4.724;2023-02-11T21:55:36;7.90;99.90
25302;DHT22;13243;50.888;4.724;2023-02-11T22:00:38;7.90;99.90
25302;DHT22;13243;50.888;4.724;2023-02-11T22:05:40;8.00;99.90
25302;DHT22;13243;50.888;4.724;2023-02-11T22:10:42;7.90;99.90
25302;DHT22;13243;50.888;4.724;2023-02-11T22:15:44;8.00;99.90
25302;DHT22;13243;50.888;4.724;2023-02-11T22:20:56;7.90;99.90
25302;DHT22;13243;50.888;4.724;2023-02-11T22:26:03;7.90;99.90
25302;DHT22;13243;50.888;4.724;2023-02-11T22:31:06;7.90;99.90
25302;DHT22;13243;50.888;4.724;2023-02-11T22:36:14;7.90;99.90
25302;DHT22;13243;50.888;4.724;2023-02-11T22:41:18;7.90;99.90
25302;DHT22;13243;50.888;4.724;2023-02-11T22:46:20;7.90;99.90
25302;DHT22;13243;50.888;4.724;2023-02-11T22:51:27;7.80;99.90
25302;DHT22;13243;50.888;4.724;2023-02-11T22:56:31;7.90;99.90
25302;DHT22;13243;50.888;4.724;2023-02-11T23:01:33;7.80;99.90
25302;DHT22;13243;50.888;4.724;2023-02-11T23:06:34;7.80;99.90
25302;DHT22;13243;50.888;4.724;2023-02-11T23:11:37;7.80;99.90
25302;DHT22;13243;50.888;4.724;2023-02-11T23:16:39;7.80;99.90
25302;DHT22;13243;50.888;4.724;2023-02-11T23:21:41;7.80;99.90
25302;DHT22;13243;50.888;4.724;2023-02-11T23:26:43;7.80;99.90
25302;DHT22;13243;50.888;4.724;2023-02-11T23:31:45;7.80;99.90
25302;DHT22;13243;50.888;4.724;2023-02-11T23:36:47;7.80;99.90
25302;DHT22;13243;50.888;4.724;2023-02-11T23:41:51;7.80;99.90
25302;DHT22;13243;50.888;4.724;2023-02-11T23:46:53;7.80;99.90
25302;DHT22;13243;50.888;4.724;2023-02-11T23:51:55;7.70;99.90
25302;DHT22;13243;50.888;4.724;2023-02-11T23:56:57;7.80;99.90
